Time;durP1;ratioP1;P1;durP2;ratioP2;P2;SDS_P1;SDS_P2;PMS_P1;PMS_P2;Temp;Humidity;BMP_temperature;BMP_pressure;BME280_temperature;BME280_humidity;BME280_pressure;Samples;Min_cycle;Max_cycle;Signal;HPM_P1;HPM_P2
2024/01/11 00:01:27;;;;;;;101.35;35.70;;;-3.50;99.90;;;;;;5041144;28;20472;-69
2024/01/11 00:03:53;;;;;;;115.05;37.42;;;-3.50;99.90;;;;;;5042371;28;20049;-69
2024/01/11 00:06:18;;;;;;;99.68;34.75;;;-3.50;99.90;;;;;;5041708;28;20460;-69
2024/01/11 00:08:44;;;;;;;98.72;33.67;;;-3.50;99.90;;;;;;5042574;28;20080;-68
2024/01/11 00:11:10;;;;;;;94.32;33.50;;;-3.50;99.90;;;;;;5042563;28;20029;-68
2024/01/11 00:13:36;;;;;;;108.78;35.88;;;-3.50;99.90;;;;;;5041797;28;20167;-68
2024/01/11 00:16:01;;;;;;;97.25;33.97;;;-3.50;99.90;;;;;;5042456;28;20025;-70
2024/01/11 00:18:27;;;;;;;101.82;33.58;;;-3.50;99.90;;;;;;5042309;28;20072;-69
2024/01/11 00:20:52;;;;;;;103.65;34.42;;;-3.40;99.90;;;;;;5039397;28;20029;-67
2024/01/11 00:23:18;;;;;;;100.05;33.80;;;-3.40;99.90;;;;;;5042012;28;20026;-70
2024/01/11 00:25:44;;;;;;;102.10;34.33;;;-3.40;99.90;;;;;;5042328;28;20018;-69
2024/01/11 00:28:09;;;;;;;96.13;34.38;;;-3.40;99.90;;;;;;5042120;28;20029;-67
2024/01/11 00:30:35;;;;;;;101.57;34.10;;;-3.40;99.90;;;;;;5042311;28;20025;-68
2024/01/11 00:33:00;;;;;;;85.13;30.23;;;-3.40;99.90;;;;;;5040873;28;20097;-70
2024/01/11 00:35:26;;;;;;;91.60;31.25;;;-3.40;99.90;;;;;;5040537;28;20021;-68
2024/01/11 00:37:51;;;;;;;92.72;31.10;;;-3.50;99.90;;;;;;5042316;28;20026;-70
2024/01/11 00:40:17;;;;;;;85.63;30.88;;;-3.50;99.90;;;;;;5040756;28;20509;-71
2024/01/11 00:42:43;;;;;;;91.22;30.90;;;-3.50;99.90;;;;;;5044823;28;20056;-69
2024/01/11 00:45:08;;;;;;;89.70;30.58;;;-3.50;99.90;;;;;;5046276;28;20021;-70
2024/01/11 00:47:34;;;;;;;96.07;33.67;;;-3.60;99.90;;;;;;5043927;28;20037;-70
2024/01/11 00:49:59;;;;;;;89.85;31.50;;;-3.60;99.90;;;;;;5045927;28;20025;-70
2024/01/11 00:52:25;;;;;;;90.93;31.13;;;-3.60;99.90;;;;;;5045964;28;20065;-69
2024/01/11 00:54:50;;;;;;;93.60;31.35;;;-3.60;99.90;;;;;;5045810;28;20033;-68
2024/01/11 00:57:16;;;;;;;93.03;32.58;;;-3.50;99.90;;;;;;5045810;28;20029;-69
2024/01/11 00:59:42;;;;;;;97.93;32.97;;;-3.50;99.90;;;;;;5046041;28;20079;-71
2024/01/11 01:02:07;;;;;;;96.03;32.38;;;-3.40;99.90;;;;;;5045630;28;20017;-68
2024/01/11 01:04:33;;;;;;;98.10;33.60;;;-3.50;99.90;;;;;;5044051;28;20045;-68
2024/01/11 01:07:01;;;;;;;91.18;32.28;;;-3.50;99.90;;;;;;5045813;28;20077;-68
2024/01/11 01:09:30;;;;;;;99.95;32.08;;;-3.50;99.90;;;;;;5045172;28;20071;-70
2024/01/11 01:11:56;;;;;;;100.13;33.53;;;-3.50;99.90;;;;;;5043888;28;20113;-68
2024/01/11 01:14:21;;;;;;;96.30;34.33;;;-3.60;99.90;;;;;;5045814;28;20037;-68
2024/01/11 01:16:47;;;;;;;100.22;33.40;;;-3.60;99.90;;;;;;5043908;28;20029;-71
2024/01/11 01:19:12;;;;;;;101.25;33.95;;;-3.70;99.90;;;;;;5045473;28;20024;-68
2024/01/11 01:21:38;;;;;;;101.22;33.28;;;-3.70;99.90;;;;;;5045472;28;20539;-68
2024/01/11 01:24:04;;;;;;;95.97;33.13;;;-3.60;99.90;;;;;;5045397;28;20033;-69
2024/01/11 01:26:29;;;;;;;102.20;34.38;;;-3.60;99.90;;;;;;5043791;28;20026;-68
2024/01/11 01:28:55;;;;;;;103.50;33.80;;;-3.60;99.90;;;;;;5043004;28;20022;-70
2024/01/11 01:31:21;;;;;;;91.82;32.83;;;-3.50;99.90;;;;;;5043563;28;20064;-70
2024/01/11 01:33:47;;;;;;;97.28;31.95;;;-3.40;99.90;;;;;;5043945;28;20022;-70
2024/01/11 01:36:13;;;;;;;101.18;34.55;;;-3.40;99.90;;;;;;5045288;28;20036;-70
2024/01/11 01:38:38;;;;;;;97.88;32.22;;;-3.20;99.90;;;;;;5042028;28;20033;-69
2024/01/11 01:41:04;;;;;;;102.75;34.28;;;-3.20;99.90;;;;;;5043558;28;20048;-70
2024/01/11 01:43:29;;;;;;;96.63;33.45;;;-3.20;99.90;;;;;;5044975;28;20026;-70
2024/01/11 01:45:55;;;;;;;100.82;32.97;;;-3.30;99.90;;;;;;5044522;28;20022;-68
2024/01/11 01:48:21;;;;;;;103.90;34.38;;;-3.30;99.90;;;;;;5043725;28;20044;-67
2024/01/11 01:50:50;;;;;;;98.85;34.05;;;-3.40;99.90;;;;;;5042499;28;20061;-70
2024/01/11 01:53:19;;;;;;;92.97;31.58;;;-3.40;99.90;;;;;;5043350;28;20037;-70
2024/01/11 01:55:45;;;;;;;99.50;33.05;;;-3.50;99.90;;;;;;5045065;28;20148;-69
2024/01/11 01:58:11;;;;;;;91.85;31.92;;;-3.50;99.90;;;;;;5044176;28;20040;-70
2024/01/11 02:00:36;;;;;;;95.60;32.20;;;-3.50;99.90;;;;;;5044500;28;20037;-67
2024/01/11 02:03:03;;;;;;;100.40;32.25;;;-3.60;99.90;;;;;;5044626;28;20042;-70
2024/01/11 02:05:28;;;;;;;100.38;33.60;;;-3.60;99.90;;;;;;5043959;28;20123;-69
2024/01/11 02:07:55;;;;;;;98.95;32.33;;;-3.60;99.90;;;;;;5043211;28;20021;-68
2024/01/11 02:10:23;;;;;;;98.82;32.83;;;-3.60;99.90;;;;;;5043298;28;20111;-68
2024/01/11 02:12:49;;;;;;;98.80;32.63;;;-3.70;99.90;;;;;;5042454;28;20128;-68
2024/01/11 02:15:15;;;;;;;100.90;32.97;;;-3.80;99.90;;;;;;5042635;28;20033;-68
2024/01/11 02:17:41;;;;;;;92.03;32.75;;;-3.80;99.90;;;;;;5042333;28;20034;-69
2024/01/11 02:20:07;;;;;;;102.65;33.25;;;-3.70;99.90;;;;;;5043192;28;20486;-69
2024/01/11 02:22:40;;;;;;;98.82;33.42;;;-3.70;99.90;;;;;;5043495;28;20030;-69
2024/01/11 02:25:06;;;;;;;98.50;32.17;;;-3.80;99.90;;;;;;5043537;28;20031;-68
2024/01/11 02:27:48;;;;;;;100.57;34.28;;;-3.80;99.90;;;;;;5043480;28;20033;-69
2024/01/11 02:30:14;;;;;;;98.70;32.72;;;-3.80;99.90;;;;;;5041268;28;20032;-69
2024/01/11 02:32:40;;;;;;;99.78;33.15;;;-3.80;99.90;;;;;;5043432;28;20038;-68
2024/01/11 02:35:06;;;;;;;97.70;33.28;;;-3.70;99.90;;;;;;5043775;28;20025;-69
2024/01/11 02:37:33;;;;;;;91.38;31.95;;;-3.80;99.90;;;;;;5043422;28;20105;-69
2024/01/11 02:39:58;;;;;;;93.95;30.88;;;-3.80;99.90;;;;;;5043553;28;20090;-68
2024/01/11 02:42:24;;;;;;;93.55;32.70;;;-3.80;99.90;;;;;;5042396;28;21043;-71
2024/01/11 02:44:50;;;;;;;98.90;32.88;;;-3.70;99.90;;;;;;5043786;28;20033;-70
2024/01/11 02:47:15;;;;;;;99.53;32.97;;;-3.70;99.90;;;;;;5043074;28;20041;-69
2024/01/11 02:49:41;;;;;;;96.63;34.05;;;-3.70;99.90;;;;;;5041853;28;20022;-69
2024/01/11 02:52:10;;;;;;;92.35;32.25;;;-3.70;99.90;;;;;;5042961;28;20069;-69
2024/01/11 02:54:36;;;;;;;96.30;32.22;;;-3.70;99.90;;;;;;5042906;28;20088;-68
2024/01/11 02:57:01;;;;;;;96.90;32.92;;;-3.70;99.90;;;;;;5041898;28;20017;-71
2024/01/11 02:59:27;;;;;;;91.90;31.77;;;-3.70;99.90;;;;;;5041570;28;20033;-68
2024/01/11 03:01:53;;;;;;;93.38;30.52;;;-3.70;99.90;;;;;;5043099;28;20044;-70
2024/01/11 03:04:18;;;;;;;84.85;29.40;;;-3.80;99.90;;;;;;5041540;28;20038;-70
2024/01/11 03:06:44;;;;;;;93.63;31.65;;;-3.80;99.90;;;;;;5040785;28;20033;-71
2024/01/11 03:09:10;;;;;;;93.15;30.70;;;-3.90;99.90;;;;;;5041544;28;20064;-69
2024/01/11 03:11:37;;;;;;;84.32;29.98;;;-4.00;99.90;;;;;;5041896;28;20041;-69
2024/01/11 03:14:03;;;;;;;95.30;31.70;;;-3.90;99.90;;;;;;5042127;28;20083;-70
2024/01/11 03:16:28;;;;;;;90.57;30.20;;;-3.90;99.90;;;;;;5041985;28;20491;-67
2024/01/11 03:18:54;;;;;;;84.45;28.75;;;-3.90;99.90;;;;;;5042129;28;20034;-67
2024/01/11 03:21:19;;;;;;;81.00;27.45;;;-3.90;99.90;;;;;;5040155;28;20386;-72
2024/01/11 03:23:45;;;;;;;80.78;27.02;;;-3.90;99.90;;;;;;5041416;28;20032;-68
2024/01/11 03:26:16;;;;;;;79.20;27.92;;;-4.00;99.90;;;;;;5042119;28;20083;-69
2024/01/11 03:28:41;;;;;;;80.40;27.13;;;-4.10;99.90;;;;;;5041917;28;20126;-70
2024/01/11 03:31:09;;;;;;;77.75;26.23;;;-4.10;99.90;;;;;;5041795;28;20030;-70
2024/01/11 03:33:35;;;;;;;77.95;26.80;;;-4.10;99.90;;;;;;5041632;28;20021;-70
2024/01/11 03:36:07;;;;;;;74.65;26.33;;;-4.10;99.90;;;;;;5041313;28;20109;-69
2024/01/11 03:38:33;;;;;;;81.43;27.75;;;-4.10;99.90;;;;;;5041591;28;20040;-68
2024/01/11 03:40:58;;;;;;;74.13;25.83;;;-4.10;99.90;;;;;;5041634;28;20065;-69
2024/01/11 03:43:24;;;;;;;77.05;25.80;;;-4.10;99.90;;;;;;5039430;28;20026;-69
2024/01/11 03:45:50;;;;;;;81.32;27.10;;;-4.10;99.90;;;;;;5040779;28;20017;-69
2024/01/11 03:48:15;;;;;;;78.47;25.85;;;-4.10;99.90;;;;;;5042126;28;20022;-70
2024/01/11 03:50:41;;;;;;;74.22;26.23;;;-4.10;99.90;;;;;;5039023;28;20088;-71
2024/01/11 03:53:07;;;;;;;80.65;26.27;;;-4.10;99.90;;;;;;5041862;28;20045;-71
2024/01/11 03:55:33;;;;;;;77.85;26.20;;;-4.10;99.90;;;;;;5041179;28;20017;-68
2024/01/11 03:57:59;;;;;;;82.65;26.60;;;-4.10;99.90;;;;;;5041264;28;20079;-70
2024/01/11 04:00:25;;;;;;;69.72;24.23;;;-4.20;99.90;;;;;;5039566;28;20029;-70
2024/01/11 04:02:50;;;;;;;76.57;24.50;;;-4.20;99.90;;;;;;5041122;28;20032;-71
2024/01/11 04:05:16;;;;;;;76.53;26.13;;;-4.20;99.90;;;;;;5041595;28;20423;-70
2024/01/11 04:07:42;;;;;;;74.38;24.92;;;-4.10;99.90;;;;;;5041513;28;20045;-71
2024/01/11 04:10:11;;;;;;;70.55;23.45;;;-4.10;99.90;;;;;;5040781;28;20055;-68
2024/01/11 04:12:37;;;;;;;72.75;24.65;;;-4.00;99.90;;;;;;5041100;28;20061;-69
2024/01/11 04:15:03;;;;;;;74.35;25.95;;;-3.80;99.90;;;;;;5037602;28;22320;-71
2024/01/11 04:17:29;;;;;;;73.03;25.20;;;-3.80;99.90;;;;;;5039067;28;20022;-68
2024/01/11 04:19:54;;;;;;;72.70;25.25;;;-3.70;99.90;;;;;;5038798;28;20163;-69
2024/01/11 04:22:20;;;;;;;79.10;25.25;;;-3.60;99.90;;;;;;5040199;28;20022;-69
2024/01/11 04:24:46;;;;;;;72.45;24.05;;;-3.60;99.90;;;;;;5039926;28;20033;-71
2024/01/11 04:27:15;;;;;;;74.75;24.33;;;-3.60;99.90;;;;;;5040228;28;20021;-71
2024/01/11 04:29:40;;;;;;;73.45;25.58;;;-3.50;99.90;;;;;;5041139;28;20099;-70
2024/01/11 04:32:06;;;;;;;69.28;23.40;;;-3.60;99.90;;;;;;5040963;28;20470;-70
2024/01/11 04:34:32;;;;;;;75.47;24.92;;;-3.60;99.90;;;;;;5040201;28;20021;-69
2024/01/11 04:36:57;;;;;;;73.50;24.50;;;-3.50;99.90;;;;;;5041415;28;20112;-69
2024/01/11 04:39:23;;;;;;;75.03;24.42;;;-3.50;99.90;;;;;;5040631;28;20025;-69
2024/01/11 04:41:48;;;;;;;72.20;23.52;;;-3.50;99.90;;;;;;5041199;28;20021;-68
2024/01/11 04:44:14;;;;;;;78.13;25.95;;;-3.40;99.90;;;;;;5041296;28;20085;-68
2024/01/11 04:46:40;;;;;;;82.13;24.67;;;-3.40;99.90;;;;;;5040974;28;20072;-67
2024/01/11 04:49:05;;;;;;;79.40;24.95;;;-3.30;99.90;;;;;;5039290;28;20029;-68
2024/01/11 04:51:31;;;;;;;77.60;23.73;;;-3.40;99.90;;;;;;5040513;28;20041;-67
2024/01/11 04:53:57;;;;;;;85.60;25.05;;;-3.40;99.90;;;;;;5039494;28;20090;-69
2024/01/11 04:56:22;;;;;;;100.45;25.10;;;-3.40;99.90;;;;;;5039611;28;20398;-68
2024/01/11 04:58:48;;;;;;;82.93;25.25;;;-3.30;99.90;;;;;;5041152;28;20028;-68
2024/01/11 05:01:15;;;;;;;100.05;26.05;;;-3.20;99.90;;;;;;5040961;28;20104;-68
2024/01/11 05:03:41;;;;;;;90.57;26.98;;;-3.20;99.90;;;;;;5039302;28;20053;-70
2024/01/11 05:06:07;;;;;;;82.75;26.50;;;-3.20;99.90;;;;;;5039768;28;20029;-68
2024/01/11 05:08:33;;;;;;;86.35;27.27;;;-3.10;99.90;;;;;;5039723;28;20025;-68
2024/01/11 05:10:59;;;;;;;79.40;25.65;;;-3.10;99.90;;;;;;5040397;28;20025;-68
2024/01/11 05:13:24;;;;;;;102.95;25.52;;;-3.20;99.90;;;;;;5038925;28;20044;-69
2024/01/11 05:15:53;;;;;;;91.30;27.83;;;-3.10;99.90;;;;;;5040596;28;20029;-70
2024/01/11 05:18:18;;;;;;;103.18;27.52;;;-3.10;99.90;;;;;;5038960;28;20021;-69
2024/01/11 05:20:44;;;;;;;90.28;28.38;;;-3.10;99.90;;;;;;5039476;28;20562;-69
2024/01/11 05:23:11;;;;;;;85.55;28.33;;;-3.20;99.90;;;;;;5040646;28;20364;-70
2024/01/11 05:25:37;;;;;;;82.63;25.65;;;-3.10;99.90;;;;;;5040991;28;20044;-70
2024/01/11 05:28:03;;;;;;;92.82;27.17;;;-3.10;99.90;;;;;;5040587;28;20494;-68
2024/01/11 05:30:29;;;;;;;89.95;27.52;;;-3.10;99.90;;;;;;5043546;28;20018;-70
2024/01/11 05:32:55;;;;;;;91.28;28.33;;;-3.10;99.90;;;;;;5043884;28;20033;-69
2024/01/11 05:35:21;;;;;;;119.72;37.42;;;-3.10;99.90;;;;;;5040536;28;20076;-67
2024/01/11 05:37:47;;;;;;;117.43;38.33;;;-3.10;99.90;;;;;;5043879;28;20029;-70
2024/01/11 05:40:13;;;;;;;96.93;30.88;;;-3.10;99.90;;;;;;5045197;28;20027;-68
2024/01/11 05:42:39;;;;;;;95.88;31.13;;;-3.10;99.90;;;;;;5044491;28;20028;-68
2024/01/11 05:45:05;;;;;;;94.95;29.50;;;-3.10;99.90;;;;;;5044886;28;20033;-67
2024/01/11 05:47:31;;;;;;;96.25;30.27;;;-3.10;99.90;;;;;;5044324;28;20068;-69
2024/01/11 05:49:56;;;;;;;101.85;32.10;;;-3.10;99.90;;;;;;5044218;28;20029;-68
2024/01/11 05:52:22;;;;;;;98.57;30.80;;;-3.10;99.90;;;;;;5043474;28;20490;-69
2024/01/11 05:54:47;;;;;;;100.45;30.63;;;-3.10;99.90;;;;;;5043270;28;21462;-69
2024/01/11 05:57:13;;;;;;;92.90;30.27;;;-3.10;99.90;;;;;;5043180;28;20116;-68
2024/01/11 05:59:46;;;;;;;94.60;30.70;;;-3.10;99.90;;;;;;5044759;28;20017;-70
2024/01/11 06:02:13;;;;;;;96.45;30.90;;;-3.10;99.90;;;;;;5044267;28;20104;-69
2024/01/11 06:04:39;;;;;;;97.30;29.27;;;-3.00;99.90;;;;;;5038552;28;20048;-68
2024/01/11 06:07:04;;;;;;;104.18;30.67;;;-3.00;99.90;;;;;;5044501;28;20025;-69
2024/01/11 06:09:30;;;;;;;97.82;31.48;;;-3.00;99.90;;;;;;5042699;28;20026;-71
2024/01/11 06:11:56;;;;;;;106.72;31.52;;;-3.00;99.90;;;;;;5044402;28;20029;-68
2024/01/11 06:14:21;;;;;;;101.45;31.05;;;-3.00;99.90;;;;;;5040578;28;20068;-69
2024/01/11 06:16:48;;;;;;;102.55;30.67;;;-3.00;99.90;;;;;;5041351;28;20033;-68
2024/01/11 06:19:14;;;;;;;109.93;32.40;;;-3.00;99.90;;;;;;5044254;28;20029;-68
2024/01/11 06:21:42;;;;;;;105.75;31.58;;;-3.00;99.90;;;;;;5043770;28;20065;-69
2024/01/11 06:24:08;;;;;;;107.82;31.98;;;-2.90;99.90;;;;;;5043672;28;20029;-68
2024/01/11 06:26:34;;;;;;;101.35;31.23;;;-2.90;99.90;;;;;;5044318;28;20025;-69
2024/01/11 06:28:59;;;;;;;108.75;32.60;;;-2.90;99.90;;;;;;5042598;28;20110;-67
2024/01/11 06:31:25;;;;;;;111.55;31.67;;;-2.80;99.90;;;;;;5043094;28;20036;-70
2024/01/11 06:33:51;;;;;;;110.97;33.58;;;-2.80;99.90;;;;;;5040999;28;20032;-69
2024/01/11 06:36:17;;;;;;;103.10;32.75;;;-2.80;99.90;;;;;;5041881;28;20033;-69
2024/01/11 06:38:42;;;;;;;110.05;32.90;;;-2.70;99.90;;;;;;5039282;28;20033;-70
2024/01/11 06:41:08;;;;;;;106.60;33.65;;;-2.70;99.90;;;;;;5039553;28;20041;-68
2024/01/11 06:43:34;;;;;;;112.20;34.17;;;-2.70;99.90;;;;;;5043422;28;20076;-68
2024/01/11 06:46:06;;;;;;;113.50;31.77;;;-2.70;99.90;;;;;;5041739;28;20080;-69
2024/01/11 06:48:32;;;;;;;113.25;31.63;;;-2.70;99.90;;;;;;5040099;28;20124;-70
2024/01/11 06:50:58;;;;;;;112.00;32.20;;;-2.70;99.90;;;;;;5040839;28;20030;-69
2024/01/11 06:53:23;;;;;;;107.35;30.77;;;-2.60;99.90;;;;;;5043548;28;20025;-69
2024/01/11 06:55:49;;;;;;;112.25;33.80;;;-2.60;99.90;;;;;;5042259;28;20037;-69
2024/01/11 06:58:16;;;;;;;117.78;32.58;;;-2.60;99.90;;;;;;5042208;28;20386;-69
2024/01/11 07:00:42;;;;;;;127.57;35.03;;;-2.60;99.90;;;;;;5037268;28;20026;-69
2024/01/11 07:03:10;;;;;;;141.15;33.60;;;-2.50;99.90;;;;;;5037793;28;20034;-69
2024/01/11 07:05:35;;;;;;;131.23;34.17;;;-2.50;99.90;;;;;;5042685;28;20021;-70
2024/01/11 07:08:08;;;;;;;119.63;34.63;;;-2.50;99.90;;;;;;5040119;28;20052;-68
2024/01/11 07:10:34;;;;;;;134.82;35.83;;;-2.50;99.90;;;;;;5041539;28;20029;-70
2024/01/11 07:12:59;;;;;;;139.95;36.20;;;-2.40;99.90;;;;;;5041793;28;20066;-70
2024/01/11 07:15:25;;;;;;;146.18;36.63;;;-2.40;99.90;;;;;;5043239;28;20025;-69
2024/01/11 07:17:51;;;;;;;136.07;37.58;;;-2.50;99.90;;;;;;5042891;28;20072;-69
2024/01/11 07:20:19;;;;;;;137.00;36.58;;;-2.40;99.90;;;;;;5043172;28;20025;-68
2024/01/11 07:22:45;;;;;;;125.32;32.33;;;-2.40;99.90;;;;;;5043273;28;20105;-68
2024/01/11 07:25:11;;;;;;;133.35;37.45;;;-2.40;99.90;;;;;;5041517;28;20083;-69
2024/01/11 07:27:36;;;;;;;128.90;33.60;;;-2.40;99.90;;;;;;5043209;28;20061;-71
2024/01/11 07:30:03;;;;;;;140.60;35.58;;;-2.50;99.90;;;;;;5042956;28;20026;-67
2024/01/11 07:32:28;;;;;;;162.38;38.58;;;-2.40;99.90;;;;;;5042440;28;20550;-68
2024/01/11 07:34:54;;;;;;;155.52;37.40;;;-2.50;99.90;;;;;;5043065;28;20135;-68
2024/01/11 07:37:20;;;;;;;163.15;34.58;;;-2.50;99.90;;;;;;5043016;28;20029;-68
2024/01/11 07:39:45;;;;;;;158.00;39.55;;;-2.50;99.90;;;;;;5042042;28;20038;-68
2024/01/11 07:42:11;;;;;;;142.85;40.15;;;-2.50;99.90;;;;;;5042885;28;20021;-68
2024/01/11 07:44:37;;;;;;;147.50;38.05;;;-2.50;99.90;;;;;;5042475;28;20025;-68
2024/01/11 07:47:02;;;;;;;174.30;37.63;;;-2.50;99.90;;;;;;5042717;28;20037;-67
2024/01/11 07:49:28;;;;;;;195.10;38.38;;;-2.50;99.90;;;;;;5041480;28;20088;-66
2024/01/11 07:51:53;;;;;;;171.13;36.28;;;-2.40;99.90;;;;;;5041098;28;20042;-67
2024/01/11 07:54:19;;;;;;;160.93;38.25;;;-2.40;99.90;;;;;;5042665;28;20017;-68
2024/01/11 07:56:45;;;;;;;217.77;37.78;;;-2.30;99.90;;;;;;5042545;28;20022;-67
2024/01/11 07:59:14;;;;;;;181.07;39.50;;;-2.20;99.90;;;;;;5041006;28;20021;-67
2024/01/11 08:01:40;;;;;;;180.15;39.72;;;-2.20;99.90;;;;;;5042152;28;20021;-68
2024/01/11 08:04:05;;;;;;;185.80;39.75;;;-2.20;99.90;;;;;;5042439;28;20154;-69
2024/01/11 08:06:32;;;;;;;230.88;42.13;;;-2.20;99.90;;;;;;5038945;28;20029;-68
2024/01/11 08:08:57;;;;;;;202.90;37.28;;;-2.20;99.90;;;;;;5041060;28;20024;-68
2024/01/11 08:11:23;;;;;;;196.57;38.63;;;-2.20;99.90;;;;;;5042412;28;20432;-68
2024/01/11 08:13:48;;;;;;;241.32;41.05;;;-2.10;99.90;;;;;;5042006;28;20025;-69
2024/01/11 08:16:18;;;;;;;198.38;39.65;;;-2.10;99.90;;;;;;5042544;28;20060;-70
2024/01/11 08:18:44;;;;;;;172.52;37.97;;;-2.00;99.90;;;;;;5040647;28;20029;-68
2024/01/11 08:21:10;;;;;;;170.13;40.60;;;-2.00;99.90;;;;;;5040421;28;20025;-68
2024/01/11 08:23:47;;;;;;;157.40;36.22;;;-2.00;99.90;;;;;;5041043;28;20398;-69
2024/01/11 08:26:13;;;;;;;161.35;37.95;;;-2.00;99.90;;;;;;5042441;28;20025;-70
2024/01/11 08:28:42;;;;;;;170.05;38.85;;;-2.00;99.90;;;;;;5040383;28;20840;-69
2024/01/11 08:31:08;;;;;;;172.98;37.78;;;-1.90;99.90;;;;;;5041402;28;20018;-67
2024/01/11 08:33:34;;;;;;;151.00;38.55;;;-1.90;99.90;;;;;;5041121;28;20040;-69
2024/01/11 08:36:03;;;;;;;147.15;38.65;;;-1.90;99.90;;;;;;5039313;28;20034;-68
2024/01/11 08:38:30;;;;;;;153.93;39.65;;;-1.80;99.90;;;;;;5038470;28;20034;-70
2024/01/11 08:40:56;;;;;;;147.30;37.85;;;-1.80;99.90;;;;;;5040225;28;20017;-68
2024/01/11 08:43:21;;;;;;;157.75;39.05;;;-1.80;99.90;;;;;;5040438;28;20059;-69
2024/01/11 08:45:47;;;;;;;157.68;39.03;;;-1.70;99.90;;;;;;5040493;28;20044;-69
2024/01/11 08:48:13;;;;;;;149.57;39.97;;;-1.70;99.90;;;;;;5039215;28;20037;-68
2024/01/11 08:50:39;;;;;;;150.02;40.25;;;-1.60;99.90;;;;;;5040800;28;20089;-67
2024/01/11 08:53:04;;;;;;;149.45;39.65;;;-1.60;99.90;;;;;;5038259;28;20065;-68
2024/01/11 08:55:30;;;;;;;148.48;37.28;;;-1.60;99.90;;;;;;5036850;28;21404;-67
2024/01/11 08:57:56;;;;;;;130.02;36.42;;;-1.50;99.90;;;;;;5039406;28;20483;-70
2024/01/11 09:00:22;;;;;;;145.30;37.65;;;-1.40;99.90;;;;;;5038197;28;20037;-67
2024/01/11 09:02:47;;;;;;;137.82;38.22;;;-1.40;99.90;;;;;;5041092;28;20040;-67
2024/01/11 09:05:14;;;;;;;139.95;36.78;;;-1.30;99.90;;;;;;5044404;28;20022;-67
2024/01/11 09:07:40;;;;;;;130.75;36.35;;;-1.30;99.90;;;;;;5041140;28;20037;-68
2024/01/11 09:10:08;;;;;;;132.15;35.95;;;-1.30;99.90;;;;;;5042553;28;20025;-67
2024/01/11 09:12:34;;;;;;;126.43;36.92;;;-1.20;99.90;;;;;;5043802;28;20079;-69
2024/01/11 09:15:00;;;;;;;128.93;35.83;;;-1.20;99.90;;;;;;5043878;28;20095;-68
2024/01/11 09:17:25;;;;;;;142.52;38.83;;;-1.20;99.90;;;;;;5041776;28;20033;-69
2024/01/11 09:19:51;;;;;;;138.60;37.70;;;-1.10;99.90;;;;;;5043258;28;20494;-68
2024/01/11 09:22:17;;;;;;;134.45;36.92;;;-1.10;99.90;;;;;;5042193;28;20055;-68
2024/01/11 09:24:43;;;;;;;127.10;34.28;;;-1.10;99.90;;;;;;5045555;28;20030;-69
2024/01/11 09:27:08;;;;;;;134.52;36.60;;;-1.10;99.90;;;;;;5044183;28;20037;-67
2024/01/11 09:29:34;;;;;;;126.53;33.40;;;-1.10;99.90;;;;;;5044949;28;20060;-67
2024/01/11 09:32:00;;;;;;;131.60;35.72;;;-1.00;99.90;;;;;;5045274;28;20045;-69
2024/01/11 09:34:25;;;;;;;139.30;36.78;;;-1.00;99.90;;;;;;5043155;28;20135;-68
2024/01/11 09:36:52;;;;;;;128.73;35.55;;;-1.00;99.90;;;;;;5044866;28;20017;-68
2024/01/11 09:39:18;;;;;;;129.85;36.83;;;-0.90;99.90;;;;;;5045247;28;20022;-69
2024/01/11 09:41:57;;;;;;;138.05;38.08;;;-0.90;99.90;;;;;;5044365;28;20029;-67
2024/01/11 09:44:24;;;;;;;132.70;36.88;;;-0.80;99.90;;;;;;5042002;28;20045;-67
2024/01/11 09:46:49;;;;;;;118.97;36.00;;;-0.70;99.90;;;;;;5041613;28;20479;-68
2024/01/11 09:49:19;;;;;;;122.32;34.20;;;-0.70;99.90;;;;;;5044649;28;20029;-67
2024/01/11 09:51:47;;;;;;;125.50;34.35;;;-0.60;99.90;;;;;;5044355;28;20486;-67
2024/01/11 09:54:14;;;;;;;126.35;35.83;;;-0.60;99.90;;;;;;5040792;28;20663;-66
2024/01/11 09:56:41;;;;;;;129.05;34.67;;;-0.50;99.90;;;;;;5042613;28;20025;-68
2024/01/11 09:59:09;;;;;;;123.78;35.45;;;-0.50;99.90;;;;;;5044201;28;20022;-70
2024/01/11 10:01:35;;;;;;;143.15;38.80;;;-0.50;99.90;;;;;;5040740;28;20026;-68
2024/01/11 10:04:02;;;;;;;148.80;42.53;;;-0.40;99.90;;;;;;5040381;28;20104;-68
2024/01/11 10:06:33;;;;;;;131.82;37.42;;;-0.40;99.90;;;;;;5044218;28;20025;-69
2024/01/11 10:08:59;;;;;;;150.07;40.05;;;-0.30;99.90;;;;;;5043206;28;20478;-68
2024/01/11 10:11:24;;;;;;;174.55;47.20;;;-0.30;99.90;;;;;;5043595;28;20036;-67
2024/01/11 10:13:57;;;;;;;138.48;40.45;;;-0.30;99.90;;;;;;5042654;28;20017;-68
2024/01/11 10:16:22;;;;;;;141.88;42.20;;;-0.20;99.90;;;;;;5043947;28;20025;-68
2024/01/11 10:18:48;;;;;;;158.00;44.00;;;-0.30;99.90;;;;;;5043087;28;20018;-69
2024/01/11 10:21:13;;;;;;;138.70;39.42;;;-0.30;99.90;;;;;;5043961;28;20032;-68
2024/01/11 10:23:39;;;;;;;132.73;36.38;;;-0.20;99.90;;;;;;5043144;28;20027;-68
2024/01/11 10:26:07;;;;;;;139.57;39.80;;;-0.20;99.90;;;;;;5042603;28;20021;-69
2024/01/11 10:28:37;;;;;;;122.55;37.42;;;-0.20;99.90;;;;;;5037791;28;20043;-68
2024/01/11 10:31:09;;;;;;;126.55;37.05;;;-0.20;99.90;;;;;;5030971;28;21927;-69
2024/01/11 10:33:35;;;;;;;127.03;36.70;;;-0.20;99.90;;;;;;5031485;28;20034;-68
2024/01/11 10:36:01;;;;;;;133.73;36.67;;;-0.20;99.90;;;;;;5043670;28;20081;-68
2024/01/11 10:38:29;;;;;;;121.72;37.30;;;-0.20;99.90;;;;;;5042442;28;20048;-70
2024/01/11 10:40:55;;;;;;;124.65;35.30;;;-0.20;99.90;;;;;;5043467;28;20088;-68
2024/01/11 10:43:22;;;;;;;122.53;37.05;;;-0.10;99.90;;;;;;5043930;28;20052;-67
2024/01/11 10:45:53;;;;;;;126.20;36.17;;;-0.10;99.90;;;;;;5043086;28;20439;-68
2024/01/11 10:48:21;;;;;;;117.55;34.60;;;-0.10;99.90;;;;;;5043799;28;20029;-68
2024/01/11 10:50:54;;;;;;;129.63;35.22;;;-0.10;99.90;;;;;;5041402;28;20107;-68
2024/01/11 10:53:32;;;;;;;130.77;33.15;;;-0.20;99.90;;;;;;5042588;28;20029;-68
2024/01/11 10:55:59;;;;;;;122.05;34.25;;;0.00;99.90;;;;;;5042457;28;20021;-68
2024/01/11 10:58:26;;;;;;;125.15;35.95;;;0.00;99.90;;;;;;5043185;28;20037;-67
2024/01/11 11:00:56;;;;;;;131.70;35.70;;;0.10;99.90;;;;;;5042064;28;20036;-67
2024/01/11 11:03:24;;;;;;;137.73;36.38;;;0.10;99.90;;;;;;5043041;28;20049;-67
2024/01/11 11:05:53;;;;;;;119.70;35.72;;;0.20;99.90;;;;;;5043654;28;20025;-67
2024/01/11 11:08:20;;;;;;;126.05;34.25;;;0.20;99.90;;;;;;5041780;28;20040;-67
2024/01/11 11:10:47;;;;;;;112.88;33.97;;;0.20;99.90;;;;;;5043291;28;20022;-68
2024/01/11 11:13:15;;;;;;;124.15;34.33;;;0.30;99.90;;;;;;5042276;28;20072;-69
2024/01/11 11:15:45;;;;;;;116.18;33.90;;;0.30;99.90;;;;;;5042957;28;20128;-66
2024/01/11 11:18:12;;;;;;;129.90;34.78;;;0.30;99.90;;;;;;5042289;28;20022;-67
2024/01/11 11:20:42;;;;;;;116.40;33.15;;;0.30;99.90;;;;;;5043001;28;20057;-68
2024/01/11 11:23:09;;;;;;;129.23;35.15;;;0.30;99.90;;;;;;5041773;28;20026;-67
2024/01/11 11:25:35;;;;;;;120.53;35.70;;;0.30;99.90;;;;;;5042563;28;20540;-67
2024/01/11 11:28:04;;;;;;;124.75;34.92;;;0.40;99.90;;;;;;5041722;28;20030;-68
2024/01/11 11:30:33;;;;;;;130.55;36.28;;;0.40;99.90;;;;;;5041746;28;20017;-67
2024/01/11 11:33:11;;;;;;;124.45;35.10;;;0.40;99.90;;;;;;5042807;28;20042;-67
2024/01/11 11:35:37;;;;;;;126.90;35.45;;;0.40;99.90;;;;;;5042522;28;20044;-67
2024/01/11 11:38:05;;;;;;;126.65;35.90;;;0.50;99.90;;;;;;5042332;28;20076;-69
2024/01/11 11:40:38;;;;;;;123.72;35.47;;;0.40;99.90;;;;;;5043038;28;20025;-68
2024/01/11 11:43:05;;;;;;;115.63;34.25;;;0.40;99.90;;;;;;5042418;28;20033;-68
2024/01/11 11:45:31;;;;;;;118.57;35.25;;;0.50;99.90;;;;;;5042863;28;20048;-66
2024/01/11 11:47:57;;;;;;;110.82;33.47;;;0.50;99.90;;;;;;5043110;28;20036;-69
2024/01/11 11:50:24;;;;;;;110.88;32.72;;;0.50;99.90;;;;;;5042685;28;20044;-68
2024/01/11 11:52:56;;;;;;;119.47;35.10;;;0.50;99.90;;;;;;5041670;28;20033;-65
2024/01/11 11:55:24;;;;;;;121.38;35.53;;;0.50;99.90;;;;;;5041551;28;20051;-69
2024/01/11 11:57:51;;;;;;;119.75;33.60;;;0.50;99.90;;;;;;5039079;28;20037;-71
2024/01/11 12:00:17;;;;;;;129.48;36.83;;;0.50;99.90;;;;;;5041850;28;20039;-68
2024/01/11 12:02:43;;;;;;;111.47;34.03;;;0.50;99.90;;;;;;5039392;28;20029;-68
2024/01/11 12:05:09;;;;;;;121.68;34.65;;;0.50;99.90;;;;;;5039597;28;20056;-69
2024/01/11 12:07:35;;;;;;;129.05;36.35;;;0.50;99.90;;;;;;5041560;28;20033;-68
2024/01/11 12:10:01;;;;;;;112.43;32.88;;;0.50;99.90;;;;;;5040493;28;20108;-69
2024/01/11 12:12:28;;;;;;;115.93;35.35;;;0.60;99.90;;;;;;5040953;28;20441;-66
2024/01/11 12:14:54;;;;;;;122.50;34.22;;;0.60;99.90;;;;;;5040577;28;20029;-68
2024/01/11 12:17:19;;;;;;;120.88;35.55;;;0.60;99.90;;;;;;5041422;28;20060;-68
2024/01/11 12:19:45;;;;;;;132.73;37.80;;;0.60;99.90;;;;;;5040446;28;20030;-70